sensor_id;sensor_type;location;lat;lon;timestamp;P1;durP1;ratioP1;P2;durP2;ratioP2
50213;SDS011;36103;54.176;12.070;2022-12-11T00:00:46;5.53;;;4.10;;
50213;SDS011;36103;54.176;12.070;2022-12-11T00:01:48;6.30;;;4.00;;
50213;SDS011;36103;54.176;12.070;2022-12-11T00:02:49;5.57;;;3.50;;
50213;SDS011;36103;54.176;12.070;2022-12-11T00:03:50;6.03;;;3.93;;
50213;SDS011;36103;54.176;12.070;2022-12-11T00:04:51;5.80;;;3.90;;
50213;SDS011;36103;54.176;12.070;2022-12-11T00:05:52;5.67;;;4.00;;
50213;SDS011;36103;54.176;12.070;2022-12-11T00:06:52;7.67;;;3.80;;
50213;SDS011;36103;54.176;12.070;2022-12-11T00:07:54;6.67;;;4.00;;
50213;SDS011;36103;54.176;12.070;2022-12-11T00:08:54;5.37;;;3.33;;
50213;SDS011;36103;54.176;12.070;2022-12-11T00:09:56;5.53;;;3.40;;
50213;SDS011;36103;54.176;12.070;2022-12-11T00:10:59;7.43;;;4.13;;
50213;SDS011;36103;54.176;12.070;2022-12-11T00:12:00;5.30;;;3.70;;
50213;SDS011;36103;54.176;12.070;2022-12-11T00:13:01;4.47;;;3.47;;
50213;SDS011;36103;54.176;12.070;2022-12-11T00:14:03;7.90;;;3.87;;
50213;SDS011;36103;54.176;12.070;2022-12-11T00:15:04;6.00;;;3.17;;
50213;SDS011;36103;54.176;12.070;2022-12-11T00:16:06;6.73;;;4.10;;
50213;SDS011;36103;54.176;12.070;2022-12-11T00:17:06;5.03;;;3.40;;
50213;SDS011;36103;54.176;12.070;2022-12-11T00:18:09;7.13;;;4.03;;
50213;SDS011;36103;54.176;12.070;2022-12-11T00:19:11;6.27;;;3.47;;
50213;SDS011;36103;54.176;12.070;2022-12-11T00:20:13;5.27;;;3.57;;
50213;SDS011;36103;54.176;12.070;2022-12-11T00:21:13;5.00;;;3.60;;
50213;SDS011;36103;54.176;12.070;2022-12-11T00:22:15;4.37;;;3.57;;
50213;SDS011;36103;54.176;12.070;2022-12-11T00:23:17;5.57;;;3.77;;
50213;SDS011;36103;54.176;12.070;2022-12-11T00:24:18;5.67;;;3.93;;
50213;SDS011;36103;54.176;12.070;2022-12-11T00:25:18;6.10;;;3.90;;
50213;SDS011;36103;54.176;12.070;2022-12-11T00:26:21;5.87;;;3.50;;
50213;SDS011;36103;54.176;12.070;2022-12-11T00:27:22;4.93;;;3.37;;
50213;SDS011;36103;54.176;12.070;2022-12-11T00:28:24;4.97;;;3.37;;
50213;SDS011;36103;54.176;12.070;2022-12-11T00:29:24;7.33;;;3.43;;
50213;SDS011;36103;54.176;12.070;2022-12-11T00:30:26;5.07;;;3.50;;
50213;SDS011;36103;54.176;12.070;2022-12-11T00:31:26;5.37;;;3.03;;
50213;SDS011;36103;54.176;12.070;2022-12-11T00:32:28;5.97;;;3.77;;
50213;SDS011;36103;54.176;12.070;2022-12-11T00:33:28;4.57;;;3.57;;
50213;SDS011;36103;54.176;12.070;2022-12-11T00:34:29;5.37;;;3.50;;
50213;SDS011;36103;54.176;12.070;2022-12-11T00:35:31;4.67;;;3.27;;
50213;SDS011;36103;54.176;12.070;2022-12-11T00:36:33;7.50;;;3.60;;
50213;SDS011;36103;54.176;12.070;2022-12-11T00:37:33;5.17;;;3.47;;
50213;SDS011;36103;54.176;12.070;2022-12-11T00:38:35;4.73;;;3.30;;
50213;SDS011;36103;54.176;12.070;2022-12-11T00:39:35;6.80;;;3.33;;
50213;SDS011;36103;54.176;12.070;2022-12-11T00:40:38;5.17;;;3.43;;
50213;SDS011;36103;54.176;12.070;2022-12-11T00:41:40;4.50;;;3.00;;
50213;SDS011;36103;54.176;12.070;2022-12-11T00:42:41;5.87;;;3.57;;
50213;SDS011;36103;54.176;12.070;2022-12-11T00:43:42;5.57;;;3.47;;
50213;SDS011;36103;54.176;12.070;2022-12-11T00:44:44;4.20;;;2.97;;
50213;SDS011;36103;54.176;12.070;2022-12-11T00:45:44;5.83;;;3.40;;
50213;SDS011;36103;54.176;12.070;2022-12-11T00:46:47;5.87;;;3.43;;
50213;SDS011;36103;54.176;12.070;2022-12-11T00:47:47;7.00;;;3.73;;
50213;SDS011;36103;54.176;12.070;2022-12-11T00:48:49;4.17;;;3.00;;
50213;SDS011;36103;54.176;12.070;2022-12-11T00:49:49;6.33;;;3.43;;
50213;SDS011;36103;54.176;12.070;2022-12-11T00:50:51;4.87;;;3.23;;
50213;SDS011;36103;54.176;12.070;2022-12-11T00:51:51;5.40;;;3.67;;
50213;SDS011;36103;54.176;12.070;2022-12-11T00:52:53;4.73;;;3.20;;
50213;SDS011;36103;54.176;12.070;2022-12-11T00:53:53;4.87;;;3.40;;
50213;SDS011;36103;54.176;12.070;2022-12-11T00:54:55;4.07;;;3.13;;
50213;SDS011;36103;54.176;12.070;2022-12-11T00:55:55;5.10;;;3.13;;
50213;SDS011;36103;54.176;12.070;2022-12-11T00:56:58;5.47;;;3.00;;
50213;SDS011;36103;54.176;12.070;2022-12-11T00:57:58;5.53;;;3.37;;
50213;SDS011;36103;54.176;12.070;2022-12-11T00:59:00;4.43;;;3.13;;
50213;SDS011;36103;54.176;12.070;2022-12-11T01:00:01;4.03;;;2.90;;
50213;SDS011;36103;54.176;12.070;2022-12-11T01:01:04;4.33;;;3.17;;
50213;SDS011;36103;54.176;12.070;2022-12-11T01:02:07;3.53;;;2.93;;
50213;SDS011;36103;54.176;12.070;2022-12-11T01:03:07;4.50;;;3.20;;
50213;SDS011;36103;54.176;12.070;2022-12-11T01:04:09;6.40;;;2.90;;
50213;SDS011;36103;54.176;12.070;2022-12-11T01:05:09;4.27;;;3.10;;
50213;SDS011;36103;54.176;12.070;2022-12-11T01:06:12;4.60;;;3.17;;
50213;SDS011;36103;54.176;12.070;2022-12-11T01:07:14;4.20;;;3.17;;
50213;SDS011;36103;54.176;12.070;2022-12-11T01:08:16;4.40;;;2.90;;
50213;SDS011;36103;54.176;12.070;2022-12-11T01:09:16;5.13;;;3.10;;
50213;SDS011;36103;54.176;12.070;2022-12-11T01:10:34;4.20;;;3.10;;
50213;SDS011;36103;54.176;12.070;2022-12-11T01:11:36;4.27;;;3.13;;
50213;SDS011;36103;54.176;12.070;2022-12-11T01:12:38;5.27;;;3.17;;
50213;SDS011;36103;54.176;12.070;2022-12-11T01:13:39;5.97;;;3.30;;
50213;SDS011;36103;54.176;12.070;2022-12-11T01:14:41;4.00;;;3.10;;
50213;SDS011;36103;54.176;12.070;2022-12-11T01:15:43;5.40;;;3.17;;
50213;SDS011;36103;54.176;12.070;2022-12-11T01:16:44;4.97;;;3.30;;
50213;SDS011;36103;54.176;12.070;2022-12-11T01:17:45;5.60;;;3.20;;
50213;SDS011;36103;54.176;12.070;2022-12-11T01:18:46;4.90;;;2.70;;
50213;SDS011;36103;54.176;12.070;2022-12-11T01:19:47;4.30;;;2.93;;
50213;SDS011;36103;54.176;12.070;2022-12-11T01:20:48;5.33;;;3.30;;
50213;SDS011;36103;54.176;12.070;2022-12-11T01:21:49;4.23;;;2.93;;
50213;SDS011;36103;54.176;12.070;2022-12-11T01:22:50;4.00;;;3.13;;
50213;SDS011;36103;54.176;12.070;2022-12-11T01:23:52;4.33;;;2.93;;
50213;SDS011;36103;54.176;12.070;2022-12-11T01:24:53;5.73;;;3.00;;
50213;SDS011;36103;54.176;12.070;2022-12-11T01:25:54;4.30;;;2.80;;
50213;SDS011;36103;54.176;12.070;2022-12-11T01:26:55;4.27;;;3.20;;
50213;SDS011;36103;54.176;12.070;2022-12-11T01:27:57;4.30;;;2.93;;
50213;SDS011;36103;54.176;12.070;2022-12-11T01:28:58;4.13;;;3.00;;
50213;SDS011;36103;54.176;12.070;2022-12-11T01:30:00;3.77;;;2.60;;
50213;SDS011;36103;54.176;12.070;2022-12-11T01:31:01;4.30;;;3.20;;
50213;SDS011;36103;54.176;12.070;2022-12-11T01:32:02;3.50;;;2.77;;
50213;SDS011;36103;54.176;12.070;2022-12-11T01:33:03;4.50;;;3.17;;
50213;SDS011;36103;54.176;12.070;2022-12-11T01:34:04;4.60;;;3.23;;
50213;SDS011;36103;54.176;12.070;2022-12-11T01:35:06;5.03;;;2.93;;
50213;SDS011;36103;54.176;12.070;2022-12-11T01:36:08;3.73;;;2.80;;
50213;SDS011;36103;54.176;12.070;2022-12-11T01:37:10;3.40;;;2.57;;
50213;SDS011;36103;54.176;12.070;2022-12-11T01:38:11;4.40;;;2.87;;
50213;SDS011;36103;54.176;12.070;2022-12-11T01:39:12;4.40;;;2.70;;
50213;SDS011;36103;54.176;12.070;2022-12-11T01:40:13;3.63;;;2.63;;
50213;SDS011;36103;54.176;12.070;2022-12-11T01:41:16;4.07;;;2.83;;
50213;SDS011;36103;54.176;12.070;2022-12-11T01:42:17;3.60;;;2.90;;
50213;SDS011;36103;54.176;12.070;2022-12-11T01:43:21;3.53;;;2.70;;
50213;SDS011;36103;54.176;12.070;2022-12-11T01:46:00;3.77;;;2.80;;
50213;SDS011;36103;54.176;12.070;2022-12-11T01:47:02;3.93;;;2.70;;
50213;SDS011;36103;54.176;12.070;2022-12-11T01:48:04;4.63;;;2.83;;
50213;SDS011;36103;54.176;12.070;2022-12-11T01:49:09;4.20;;;3.00;;
50213;SDS011;36103;54.176;12.070;2022-12-11T01:50:12;3.50;;;2.73;;
50213;SDS011;36103;54.176;12.070;2022-12-11T01:51:12;3.30;;;2.70;;
50213;SDS011;36103;54.176;12.070;2022-12-11T01:52:15;4.43;;;3.27;;
50213;SDS011;36103;54.176;12.070;2022-12-11T01:53:20;3.00;;;2.53;;
50213;SDS011;36103;54.176;12.070;2022-12-11T01:54:24;3.47;;;2.87;;
50213;SDS011;36103;54.176;12.070;2022-12-11T01:55:25;3.30;;;2.67;;
50213;SDS011;36103;54.176;12.070;2022-12-11T01:56:27;6.13;;;3.13;;
50213;SDS011;36103;54.176;12.070;2022-12-11T01:57:28;4.27;;;2.70;;
50213;SDS011;36103;54.176;12.070;2022-12-11T01:58:33;3.93;;;2.50;;
50213;SDS011;36103;54.176;12.070;2022-12-11T01:59:35;3.10;;;2.50;;
50213;SDS011;36103;54.176;12.070;2022-12-11T02:00:38;3.53;;;2.80;;
50213;SDS011;36103;54.176;12.070;2022-12-11T02:01:40;3.90;;;3.03;;
50213;SDS011;36103;54.176;12.070;2022-12-11T02:02:43;3.40;;;2.70;;
50213;SDS011;36103;54.176;12.070;2022-12-11T02:03:44;3.63;;;3.07;;
50213;SDS011;36103;54.176;12.070;2022-12-11T02:04:46;4.17;;;3.30;;
50213;SDS011;36103;54.176;12.070;2022-12-11T02:05:47;3.03;;;2.40;;
50213;SDS011;36103;54.176;12.070;2022-12-11T02:06:49;3.40;;;2.70;;
50213;SDS011;36103;54.176;12.070;2022-12-11T02:07:51;3.50;;;2.87;;
50213;SDS011;36103;54.176;12.070;2022-12-11T02:08:54;3.03;;;2.50;;
50213;SDS011;36103;54.176;12.070;2022-12-11T02:09:54;3.83;;;2.57;;
50213;SDS011;36103;54.176;12.070;2022-12-11T02:11:00;3.07;;;2.60;;
50213;SDS011;36103;54.176;12.070;2022-12-11T02:12:06;4.03;;;2.70;;
50213;SDS011;36103;54.176;12.070;2022-12-11T02:13:16;4.53;;;3.07;;
50213;SDS011;36103;54.176;12.070;2022-12-11T02:14:23;3.27;;;2.57;;
50213;SDS011;36103;54.176;12.070;2022-12-11T02:15:30;4.20;;;2.60;;
50213;SDS011;36103;54.176;12.070;2022-12-11T02:16:34;5.13;;;2.70;;
50213;SDS011;36103;54.176;12.070;2022-12-11T02:17:40;3.27;;;2.57;;
50213;SDS011;36103;54.176;12.070;2022-12-11T02:18:45;3.27;;;2.30;;
50213;SDS011;36103;54.176;12.070;2022-12-11T02:19:55;3.00;;;2.70;;
50213;SDS011;36103;54.176;12.070;2022-12-11T02:20:59;3.17;;;2.63;;
50213;SDS011;36103;54.176;12.070;2022-12-11T02:22:04;4.37;;;3.03;;
50213;SDS011;36103;54.176;12.070;2022-12-11T02:24:43;3.83;;;2.40;;
50213;SDS011;36103;54.176;12.070;2022-12-11T02:25:51;3.97;;;2.70;;
50213;SDS011;36103;54.176;12.070;2022-12-11T02:27:01;3.07;;;2.63;;
50213;SDS011;36103;54.176;12.070;2022-12-11T02:28:16;3.57;;;2.73;;
50213;SDS011;36103;54.176;12.070;2022-12-11T02:29:19;2.90;;;2.43;;
50213;SDS011;36103;54.176;12.070;2022-12-11T02:30:22;3.07;;;2.33;;
50213;SDS011;36103;54.176;12.070;2022-12-11T02:31:25;3.00;;;2.30;;
50213;SDS011;36103;54.176;12.070;2022-12-11T02:32:29;3.20;;;2.60;;
50213;SDS011;36103;54.176;12.070;2022-12-11T02:33:37;2.73;;;2.40;;
50213;SDS011;36103;54.176;12.070;2022-12-11T02:34:44;3.57;;;2.33;;
50213;SDS011;36103;54.176;12.070;2022-12-11T02:35:48;4.33;;;2.80;;
50213;SDS011;36103;54.176;12.070;2022-12-11T02:36:59;4.03;;;2.57;;
50213;SDS011;36103;54.176;12.070;2022-12-11T02:38:05;3.60;;;2.77;;
50213;SDS011;36103;54.176;12.070;2022-12-11T02:39:08;3.80;;;2.50;;
50213;SDS011;36103;54.176;12.070;2022-12-11T02:40:12;3.47;;;2.40;;
50213;SDS011;36103;54.176;12.070;2022-12-11T02:41:14;3.80;;;2.57;;
50213;SDS011;36103;54.176;12.070;2022-12-11T02:42:18;3.30;;;2.20;;
50213;SDS011;36103;54.176;12.070;2022-12-11T02:43:20;2.67;;;2.37;;
50213;SDS011;36103;54.176;12.070;2022-12-11T02:44:23;2.93;;;2.50;;
50213;SDS011;36103;54.176;12.070;2022-12-11T02:45:25;3.90;;;2.33;;
50213;SDS011;36103;54.176;12.070;2022-12-11T02:46:27;4.07;;;2.53;;
50213;SDS011;36103;54.176;12.070;2022-12-11T02:47:28;3.10;;;2.30;;
50213;SDS011;36103;54.176;12.070;2022-12-11T02:48:31;2.10;;;1.90;;
50213;SDS011;36103;54.176;12.070;2022-12-11T02:49:31;3.43;;;2.67;;
50213;SDS011;36103;54.176;12.070;2022-12-11T02:50:33;2.37;;;2.17;;
50213;SDS011;36103;54.176;12.070;2022-12-11T02:51:37;2.70;;;2.30;;
50213;SDS011;36103;54.176;12.070;2022-12-11T02:52:40;2.87;;;2.30;;
50213;SDS011;36103;54.176;12.070;2022-12-11T02:53:41;3.43;;;2.73;;
50213;SDS011;36103;54.176;12.070;2022-12-11T02:54:44;2.33;;;1.97;;
50213;SDS011;36103;54.176;12.070;2022-12-11T02:55:46;3.00;;;2.10;;
50213;SDS011;36103;54.176;12.070;2022-12-11T02:56:49;3.67;;;2.10;;
50213;SDS011;36103;54.176;12.070;2022-12-11T02:57:54;3.30;;;2.63;;
50213;SDS011;36103;54.176;12.070;2022-12-11T02:59:02;3.33;;;2.33;;
50213;SDS011;36103;54.176;12.070;2022-12-11T03:00:07;3.40;;;2.00;;
50213;SDS011;36103;54.176;12.070;2022-12-11T03:01:09;4.07;;;2.50;;
50213;SDS011;36103;54.176;12.070;2022-12-11T03:02:10;3.63;;;2.20;;
50213;SDS011;36103;54.176;12.070;2022-12-11T03:03:12;3.63;;;2.57;;
50213;SDS011;36103;54.176;12.070;2022-12-11T03:04:13;3.53;;;2.47;;
50213;SDS011;36103;54.176;12.070;2022-12-11T03:05:14;2.33;;;2.13;;
50213;SDS011;36103;54.176;12.070;2022-12-11T03:06:17;3.73;;;2.60;;
50213;SDS011;36103;54.176;12.070;2022-12-11T03:07:20;2.67;;;2.30;;
50213;SDS011;36103;54.176;12.070;2022-12-11T03:08:24;3.33;;;2.53;;
50213;SDS011;36103;54.176;12.070;2022-12-11T03:09:24;2.93;;;2.27;;
50213;SDS011;36103;54.176;12.070;2022-12-11T03:10:27;2.97;;;2.37;;
50213;SDS011;36103;54.176;12.070;2022-12-11T03:11:28;2.33;;;2.10;;
50213;SDS011;36103;54.176;12.070;2022-12-11T03:12:29;2.93;;;2.40;;
50213;SDS011;36103;54.176;12.070;2022-12-11T03:13:32;3.83;;;2.73;;
50213;SDS011;36103;54.176;12.070;2022-12-11T03:14:33;3.60;;;2.37;;
50213;SDS011;36103;54.176;12.070;2022-12-11T03:15:37;3.50;;;2.47;;
50213;SDS011;36103;54.176;12.070;2022-12-11T03:16:41;2.70;;;2.30;;
50213;SDS011;36103;54.176;12.070;2022-12-11T03:17:51;3.37;;;2.10;;
50213;SDS011;36103;54.176;12.070;2022-12-11T03:18:58;3.40;;;2.50;;
50213;SDS011;36103;54.176;12.070;2022-12-11T03:20:04;2.00;;;1.80;;
50213;SDS011;36103;54.176;12.070;2022-12-11T03:21:08;4.10;;;2.20;;
50213;SDS011;36103;54.176;12.070;2022-12-11T03:22:14;2.90;;;2.27;;
50213;SDS011;36103;54.176;12.070;2022-12-11T03:23:17;2.73;;;2.43;;
50213;SDS011;36103;54.176;12.070;2022-12-11T03:24:22;2.93;;;2.17;;
50213;SDS011;36103;54.176;12.070;2022-12-11T03:25:26;3.47;;;2.63;;
50213;SDS011;36103;54.176;12.070;2022-12-11T03:26:30;2.57;;;2.00;;
50213;SDS011;36103;54.176;12.070;2022-12-11T03:27:32;2.53;;;2.13;;
50213;SDS011;36103;54.176;12.070;2022-12-11T03:28:36;2.33;;;2.13;;
50213;SDS011;36103;54.176;12.070;2022-12-11T03:29:42;2.90;;;2.20;;
50213;SDS011;36103;54.176;12.070;2022-12-11T03:30:48;2.37;;;2.10;;
50213;SDS011;36103;54.176;12.070;2022-12-11T03:31:51;2.43;;;2.23;;
50213;SDS011;36103;54.176;12.070;2022-12-11T03:32:57;2.20;;;2.00;;
50213;SDS011;36103;54.176;12.070;2022-12-11T03:34:01;2.90;;;2.03;;
50213;SDS011;36103;54.176;12.070;2022-12-11T03:35:05;2.60;;;2.23;;
50213;SDS011;36103;54.176;12.070;2022-12-11T03:36:09;2.77;;;2.20;;
50213;SDS011;36103;54.176;12.070;2022-12-11T03:37:11;3.03;;;2.20;;
50213;SDS011;36103;54.176;12.070;2022-12-11T03:38:15;2.37;;;1.90;;
50213;SDS011;36103;54.176;12.070;2022-12-11T03:39:20;2.83;;;2.37;;
50213;SDS011;36103;54.176;12.070;2022-12-11T03:40:23;3.03;;;2.33;;
50213;SDS011;36103;54.176;12.070;2022-12-11T03:41:25;3.03;;;2.10;;
50213;SDS011;36103;54.176;12.070;2022-12-11T03:42:28;2.80;;;1.97;;
50213;SDS011;36103;54.176;12.070;2022-12-11T03:43:29;2.60;;;2.23;;
50213;SDS011;36103;54.176;12.070;2022-12-11T03:44:31;2.30;;;2.07;;
50213;SDS011;36103;54.176;12.070;2022-12-11T03:45:35;2.40;;;2.20;;
50213;SDS011;36103;54.176;12.070;2022-12-11T03:46:38;2.33;;;2.13;;
50213;SDS011;36103;54.176;12.070;2022-12-11T03:47:40;2.20;;;1.90;;
50213;SDS011;36103;54.176;12.070;2022-12-11T03:48:41;2.67;;;2.20;;
50213;SDS011;36103;54.176;12.070;2022-12-11T03:49:44;2.47;;;2.13;;
50213;SDS011;36103;54.176;12.070;2022-12-11T03:50:46;2.83;;;2.13;;
50213;SDS011;36103;54.176;12.070;2022-12-11T03:51:49;2.90;;;2.27;;
50213;SDS011;36103;54.176;12.070;2022-12-11T03:52:50;2.50;;;2.10;;
50213;SDS011;36103;54.176;12.070;2022-12-11T03:53:52;2.77;;;2.30;;
50213;SDS011;36103;54.176;12.070;2022-12-11T03:54:54;4.20;;;2.37;;
50213;SDS011;36103;54.176;12.070;2022-12-11T03:55:57;3.63;;;1.87;;
50213;SDS011;36103;54.176;12.070;2022-12-11T03:57:00;2.67;;;2.00;;
50213;SDS011;36103;54.176;12.070;2022-12-11T03:58:02;2.30;;;2.10;;
50213;SDS011;36103;54.176;12.070;2022-12-11T03:59:04;2.30;;;1.60;;
50213;SDS011;36103;54.176;12.070;2022-12-11T04:00:06;3.13;;;2.30;;
50213;SDS011;36103;54.176;12.070;2022-12-11T04:01:13;2.80;;;2.40;;
50213;SDS011;36103;54.176;12.070;2022-12-11T04:02:14;2.37;;;1.97;;
50213;SDS011;36103;54.176;12.070;2022-12-11T04:03:15;3.40;;;2.03;;
50213;SDS011;36103;54.176;12.070;2022-12-11T04:04:17;2.57;;;2.10;;
50213;SDS011;36103;54.176;12.070;2022-12-11T04:05:17;2.27;;;2.07;;
50213;SDS011;36103;54.176;12.070;2022-12-11T04:06:19;3.10;;;2.30;;
50213;SDS011;36103;54.176;12.070;2022-12-11T04:07:19;2.53;;;1.90;;
50213;SDS011;36103;54.176;12.070;2022-12-11T04:08:21;2.53;;;2.20;;
50213;SDS011;36103;54.176;12.070;2022-12-11T04:09:22;2.27;;;1.87;;
50213;SDS011;36103;54.176;12.070;2022-12-11T04:10:23;2.93;;;2.20;;
50213;SDS011;36103;54.176;12.070;2022-12-11T04:11:24;2.67;;;2.20;;
50213;SDS011;36103;54.176;12.070;2022-12-11T04:12:34;2.30;;;2.10;;
50213;SDS011;36103;54.176;12.070;2022-12-11T04:13:36;2.20;;;1.80;;
50213;SDS011;36103;54.176;12.070;2022-12-11T04:14:37;2.00;;;1.80;;
50213;SDS011;36103;54.176;12.070;2022-12-11T04:15:56;2.47;;;1.80;;
50213;SDS011;36103;54.176;12.070;2022-12-11T04:16:59;2.90;;;2.10;;
50213;SDS011;36103;54.176;12.070;2022-12-11T04:18:00;2.13;;;1.90;;
50213;SDS011;36103;54.176;12.070;2022-12-11T04:19:19;2.87;;;2.00;;
50213;SDS011;36103;54.176;12.070;2022-12-11T04:20:38;2.13;;;1.93;;
50213;SDS011;36103;54.176;12.070;2022-12-11T04:21:57;2.37;;;1.93;;
50213;SDS011;36103;54.176;12.070;2022-12-11T04:23:17;2.63;;;2.03;;
50213;SDS011;36103;54.176;12.070;2022-12-11T04:24:36;3.30;;;2.57;;
50213;SDS011;36103;54.176;12.070;2022-12-11T04:25:37;2.23;;;2.03;;
50213;SDS011;36103;54.176;12.070;2022-12-11T04:26:38;2.27;;;1.73;;
50213;SDS011;36103;54.176;12.070;2022-12-11T04:27:39;2.67;;;2.10;;
50213;SDS011;36103;54.176;12.070;2022-12-11T04:28:49;3.60;;;2.40;;
50213;SDS011;36103;54.176;12.070;2022-12-11T04:29:50;2.20;;;2.00;;
50213;SDS011;36103;54.176;12.070;2022-12-11T04:30:50;1.77;;;1.67;;
50213;SDS011;36103;54.176;12.070;2022-12-11T04:31:52;2.13;;;1.90;;
50213;SDS011;36103;54.176;12.070;2022-12-11T04:32:53;2.17;;;1.97;;
50213;SDS011;36103;54.176;12.070;2022-12-11T04:33:55;1.87;;;1.63;;
50213;SDS011;36103;54.176;12.070;2022-12-11T04:34:55;1.93;;;1.73;;
50213;SDS011;36103;54.176;12.070;2022-12-11T04:35:57;1.97;;;1.77;;
50213;SDS011;36103;54.176;12.070;2022-12-11T04:36:58;2.47;;;1.80;;
50213;SDS011;36103;54.176;12.070;2022-12-11T04:37:59;2.13;;;1.93;;
50213;SDS011;36103;54.176;12.070;2022-12-11T04:39:00;1.90;;;1.70;;
50213;SDS011;36103;54.176;12.070;2022-12-11T04:40:02;2.30;;;2.00;;
50213;SDS011;36103;54.176;12.070;2022-12-11T04:41:04;2.10;;;1.90;;
50213;SDS011;36103;54.176;12.070;2022-12-11T04:42:07;2.17;;;1.93;;
50213;SDS011;36103;54.176;12.070;2022-12-11T04:43:07;2.43;;;1.83;;
50213;SDS011;36103;54.176;12.070;2022-12-11T04:44:09;2.10;;;1.93;;
50213;SDS011;36103;54.176;12.070;2022-12-11T04:45:09;2.20;;;1.83;;
50213;SDS011;36103;54.176;12.070;2022-12-11T04:46:12;1.80;;;1.50;;
50213;SDS011;36103;54.176;12.070;2022-12-11T04:47:14;2.03;;;1.83;;
50213;SDS011;36103;54.176;12.070;2022-12-11T04:48:17;2.57;;;1.97;;
50213;SDS011;36103;54.176;12.070;2022-12-11T04:49:17;2.37;;;2.17;;
50213;SDS011;36103;54.176;12.070;2022-12-11T04:50:18;2.57;;;1.90;;
50213;SDS011;36103;54.176;12.070;2022-12-11T04:51:19;1.90;;;1.63;;
50213;SDS011;36103;54.176;12.070;2022-12-11T04:52:20;2.63;;;1.73;;
50213;SDS011;36103;54.176;12.070;2022-12-11T04:53:21;2.10;;;1.77;;
50213;SDS011;36103;54.176;12.070;2022-12-11T04:54:22;2.30;;;1.90;;
50213;SDS011;36103;54.176;12.070;2022-12-11T04:55:23;2.33;;;1.70;;
50213;SDS011;36103;54.176;12.070;2022-12-11T04:56:24;2.13;;;1.80;;
50213;SDS011;36103;54.176;12.070;2022-12-11T04:57:25;2.13;;;1.90;;
50213;SDS011;36103;54.176;12.070;2022-12-11T04:58:26;2.47;;;2.07;;
50213;SDS011;36103;54.176;12.070;2022-12-11T04:59:27;2.43;;;1.80;;
50213;SDS011;36103;54.176;12.070;2022-12-11T05:00:29;2.67;;;1.80;;
50213;SDS011;36103;54.176;12.070;2022-12-11T05:01:29;2.27;;;1.90;;
50213;SDS011;36103;54.176;12.070;2022-12-11T05:02:32;1.77;;;1.63;;
50213;SDS011;36103;54.176;12.070;2022-12-11T05:03:35;2.03;;;1.73;;
50213;SDS011;36103;54.176;12.070;2022-12-11T05:04:36;2.23;;;1.90;;
50213;SDS011;36103;54.176;12.070;2022-12-11T05:05:37;2.00;;;1.73;;
50213;SDS011;36103;54.176;12.070;2022-12-11T05:06:38;2.00;;;1.60;;
50213;SDS011;36103;54.176;12.070;2022-12-11T05:07:39;3.27;;;1.63;;
50213;SDS011;36103;54.176;12.070;2022-12-11T05:08:41;2.10;;;1.57;;
50213;SDS011;36103;54.176;12.070;2022-12-11T05:09:42;2.40;;;1.70;;
50213;SDS011;36103;54.176;12.070;2022-12-11T05:10:43;2.63;;;2.17;;
50213;SDS011;36103;54.176;12.070;2022-12-11T05:11:44;1.97;;;1.73;;
50213;SDS011;36103;54.176;12.070;2022-12-11T05:12:46;2.03;;;1.83;;
50213;SDS011;36103;54.176;12.070;2022-12-11T05:13:46;2.10;;;1.87;;
50213;SDS011;36103;54.176;12.070;2022-12-11T05:14:50;2.47;;;1.80;;
50213;SDS011;36103;54.176;12.070;2022-12-11T05:15:50;1.80;;;1.70;;
50213;SDS011;36103;54.176;12.070;2022-12-11T05:16:52;1.93;;;1.70;;
50213;SDS011;36103;54.176;12.070;2022-12-11T05:17:54;2.37;;;1.63;;
50213;SDS011;36103;54.176;12.070;2022-12-11T05:18:56;1.90;;;1.63;;
50213;SDS011;36103;54.176;12.070;2022-12-11T05:19:57;1.90;;;1.70;;
50213;SDS011;36103;54.176;12.070;2022-12-11T05:20:59;1.80;;;1.70;;
50213;SDS011;36103;54.176;12.070;2022-12-11T05:22:01;2.13;;;1.67;;
50213;SDS011;36103;54.176;12.070;2022-12-11T05:23:02;3.77;;;1.87;;
50213;SDS011;36103;54.176;12.070;2022-12-11T05:24:03;1.90;;;1.80;;
50213;SDS011;36103;54.176;12.070;2022-12-11T05:25:06;1.53;;;1.43;;
50213;SDS011;36103;54.176;12.070;2022-12-11T05:26:07;1.93;;;1.40;;
50213;SDS011;36103;54.176;12.070;2022-12-11T05:27:12;2.40;;;1.70;;
50213;SDS011;36103;54.176;12.070;2022-12-11T05:28:12;1.67;;;1.57;;
50213;SDS011;36103;54.176;12.070;2022-12-11T05:29:14;1.83;;;1.73;;
50213;SDS011;36103;54.176;12.070;2022-12-11T05:30:14;1.87;;;1.70;;
50213;SDS011;36103;54.176;12.070;2022-12-11T05:31:17;1.50;;;1.40;;
50213;SDS011;36103;54.176;12.070;2022-12-11T05:32:19;1.50;;;1.40;;
50213;SDS011;36103;54.176;12.070;2022-12-11T05:33:20;1.67;;;1.53;;
50213;SDS011;36103;54.176;12.070;2022-12-11T05:34:22;1.90;;;1.50;;
50213;SDS011;36103;54.176;12.070;2022-12-11T05:35:23;1.93;;;1.60;;
50213;SDS011;36103;54.176;12.070;2022-12-11T05:36:25;1.67;;;1.57;;
50213;SDS011;36103;54.176;12.070;2022-12-11T05:37:27;1.60;;;1.50;;
50213;SDS011;36103;54.176;12.070;2022-12-11T05:38:28;2.13;;;1.60;;
50213;SDS011;36103;54.176;12.070;2022-12-11T05:39:30;1.73;;;1.60;;
50213;SDS011;36103;54.176;12.070;2022-12-11T05:40:30;1.93;;;1.70;;
50213;SDS011;36103;54.176;12.070;2022-12-11T05:41:31;1.80;;;1.43;;
50213;SDS011;36103;54.176;12.070;2022-12-11T05:42:32;1.77;;;1.67;;
50213;SDS011;36103;54.176;12.070;2022-12-11T05:43:34;2.13;;;1.83;;
50213;SDS011;36103;54.176;12.070;2022-12-11T05:44:35;1.90;;;1.60;;
50213;SDS011;36103;54.176;12.070;2022-12-11T05:45:36;1.93;;;1.73;;
50213;SDS011;36103;54.176;12.070;2022-12-11T05:46:37;1.80;;;1.60;;
50213;SDS011;36103;54.176;12.070;2022-12-11T05:47:39;1.97;;;1.60;;
50213;SDS011;36103;54.176;12.070;2022-12-11T05:48:40;2.00;;;1.70;;
50213;SDS011;36103;54.176;12.070;2022-12-11T05:49:43;1.83;;;1.53;;
50213;SDS011;36103;54.176;12.070;2022-12-11T05:50:44;1.77;;;1.23;;
50213;SDS011;36103;54.176;12.070;2022-12-11T05:51:45;2.73;;;2.10;;
50213;SDS011;36103;54.176;12.070;2022-12-11T05:52:46;1.70;;;1.60;;
50213;SDS011;36103;54.176;12.070;2022-12-11T05:53:48;2.17;;;1.67;;
50213;SDS011;36103;54.176;12.070;2022-12-11T05:54:49;2.10;;;1.70;;
50213;SDS011;36103;54.176;12.070;2022-12-11T05:55:51;1.83;;;1.67;;
50213;SDS011;36103;54.176;12.070;2022-12-11T05:56:51;2.13;;;1.50;;
50213;SDS011;36103;54.176;12.070;2022-12-11T05:57:53;1.73;;;1.40;;
50213;SDS011;36103;54.176;12.070;2022-12-11T05:58:53;2.10;;;1.67;;
50213;SDS011;36103;54.176;12.070;2022-12-11T05:59:55;1.60;;;1.50;;
50213;SDS011;36103;54.176;12.070;2022-12-11T06:00:56;1.87;;;1.43;;
50213;SDS011;36103;54.176;12.070;2022-12-11T06:01:57;1.63;;;1.47;;
50213;SDS011;36103;54.176;12.070;2022-12-11T06:02:58;1.77;;;1.40;;
50213;SDS011;36103;54.176;12.070;2022-12-11T06:04:00;2.60;;;1.77;;
50213;SDS011;36103;54.176;12.070;2022-12-11T06:05:03;1.50;;;1.33;;
50213;SDS011;36103;54.176;12.070;2022-12-11T06:06:05;1.47;;;1.37;;
50213;SDS011;36103;54.176;12.070;2022-12-11T06:07:06;1.50;;;1.40;;
50213;SDS011;36103;54.176;12.070;2022-12-11T06:08:07;1.80;;;1.57;;
50213;SDS011;36103;54.176;12.070;2022-12-11T06:09:10;1.63;;;1.40;;
50213;SDS011;36103;54.176;12.070;2022-12-11T06:10:14;1.93;;;1.50;;
50213;SDS011;36103;54.176;12.070;2022-12-11T06:11:14;1.60;;;1.40;;
50213;SDS011;36103;54.176;12.070;2022-12-11T06:12:16;1.60;;;1.50;;
50213;SDS011;36103;54.176;12.070;2022-12-11T06:13:16;1.90;;;1.50;;
50213;SDS011;36103;54.176;12.070;2022-12-11T06:14:18;1.60;;;1.50;;